createdAt,value
2017-09-23T00:00:10.815Z,101786.91
2017-09-23T00:02:45.401Z,101795.83
2017-09-23T00:05:20.141Z,101787.66
2017-09-23T00:07:54.827Z,101788.92
2017-09-23T00:10:30.498Z,101788.17
2017-09-23T00:13:05.247Z,101799.08
2017-09-23T00:15:40.041Z,101797.92
2017-09-23T00:18:15.779Z,101797.86
2017-09-23T00:20:50.434Z,101796.31
2017-09-23T00:23:25.087Z,101791.86
2017-09-23T00:25:59.756Z,101791.92
2017-09-23T00:28:34.623Z,101799.69
2017-09-23T00:31:09.274Z,101795.50
2017-09-23T00:33:43.957Z,101792.45
2017-09-23T00:36:18.827Z,101791.94
2017-09-23T00:38:53.706Z,101787.11
2017-09-23T00:41:28.334Z,101793.39
2017-09-23T00:44:02.821Z,101794.67
2017-09-23T00:46:38.115Z,101796.91
2017-09-23T00:49:12.746Z,101797.80
2017-09-23T00:51:47.199Z,101792.66
2017-09-23T00:54:21.911Z,101791.50
2017-09-23T00:56:56.959Z,101796.01
2017-09-23T00:59:31.689Z,101802.66
2017-09-23T01:02:07.136Z,101791.56
2017-09-23T01:04:41.547Z,101795.66
2017-09-23T01:07:16.370Z,101792.64
2017-09-23T01:09:51.727Z,101797.15
2017-09-23T01:12:26.311Z,101792.45
2017-09-23T01:15:01.240Z,101793.63
2017-09-23T01:17:35.955Z,101792.42
2017-09-23T01:20:10.681Z,101790.78
2017-09-23T01:22:44.967Z,101788.32
2017-09-23T01:25:19.340Z,101790.12
2017-09-23T01:27:54.278Z,101793.17
2017-09-23T01:30:29.086Z,101787.78
2017-09-23T01:33:03.853Z,101790.48
2017-09-23T01:35:38.868Z,101791.05
2017-09-23T01:38:13.294Z,101789.53
2017-09-23T01:40:48.139Z,101784.05
2017-09-23T01:43:22.764Z,101787.89
2017-09-23T01:45:57.398Z,101790.47
2017-09-23T01:48:32.024Z,101788.84
2017-09-23T01:51:07.035Z,101795.34
2017-09-23T01:53:41.876Z,101795.49
2017-09-23T01:56:17.111Z,101792.08
2017-09-23T01:58:52.058Z,101790.66
2017-09-23T02:01:26.607Z,101786.73
2017-09-23T02:04:01.399Z,101784.91
2017-09-23T02:06:36.001Z,101793.05
2017-09-23T02:09:10.676Z,101793.39
2017-09-23T02:11:45.463Z,101797.19
2017-09-23T02:14:20.182Z,101790.03
2017-09-23T02:16:55.187Z,101798.02
2017-09-23T02:19:29.932Z,101796.09
2017-09-23T02:22:04.758Z,101791.21
2017-09-23T02:24:39.463Z,101791.73
2017-09-23T02:27:14.087Z,101791.21
2017-09-23T02:29:48.852Z,101783.80
2017-09-23T02:32:23.485Z,101789.74
2017-09-23T02:34:58.142Z,101790.25
2017-09-23T02:37:32.803Z,101788.89
2017-09-23T02:40:07.491Z,101789.04
2017-09-23T02:42:42.178Z,101789.34
2017-09-23T02:45:16.682Z,101796.36
2017-09-23T02:47:52.409Z,101786.31
2017-09-23T02:50:27.968Z,101787.74
2017-09-23T02:53:02.695Z,101789.20
2017-09-23T02:55:37.465Z,101788.54
2017-09-23T02:58:12.546Z,101797.31
2017-09-23T03:00:47.567Z,101792.45
2017-09-23T03:03:22.386Z,101788.59
2017-09-23T03:05:57.236Z,101794.92
2017-09-23T03:08:32.047Z,101789.91
2017-09-23T03:11:06.880Z,101798.78
2017-09-23T03:13:42.472Z,101796.23
2017-09-23T03:16:17.334Z,101798.52
2017-09-23T03:18:52.273Z,101795.11
2017-09-23T03:21:27.077Z,101797.95
2017-09-23T03:24:01.787Z,101799.48
2017-09-23T03:26:36.437Z,101804.84
2017-09-23T03:29:11.042Z,101804.51
2017-09-23T03:31:45.778Z,101804.01
2017-09-23T03:34:20.703Z,101807.59
2017-09-23T03:36:55.455Z,101813.86
2017-09-23T03:39:30.246Z,101811.86
2017-09-23T03:42:04.759Z,101814.30
2017-09-23T03:44:39.640Z,101809.75
2017-09-23T03:47:14.352Z,101814.57
2017-09-23T03:49:48.899Z,101812.20
2017-09-23T03:52:23.835Z,101813.41
2017-09-23T03:54:58.452Z,101814.38
2017-09-23T03:57:33.150Z,101816.58
2017-09-23T04:00:08.639Z,101816.63
2017-09-23T04:02:43.252Z,101819.86
2017-09-23T04:05:18.771Z,101814.45
2017-09-23T04:07:53.392Z,101810.70
2017-09-23T04:10:29.107Z,101816.69
2017-09-23T04:13:03.779Z,101818.42
2017-09-23T04:15:38.395Z,101815.15
2017-09-23T04:18:14.245Z,101825.63
2017-09-23T04:20:49.111Z,101821.92
2017-09-23T04:23:23.913Z,101823.77
2017-09-23T04:25:58.646Z,101817.78
2017-09-23T04:28:34.224Z,101819.12
2017-09-23T04:31:08.811Z,101814.68
2017-09-23T04:33:44.401Z,101819.78
2017-09-23T04:36:19.162Z,101822.24
2017-09-23T04:38:53.688Z,101831.14
2017-09-23T04:41:29.278Z,101832.36
2017-09-23T04:44:03.899Z,101834.91
2017-09-23T04:46:38.570Z,101832.27
2017-09-23T04:49:13.078Z,101834.59
2017-09-23T04:51:47.779Z,101841.98
2017-09-23T04:54:22.735Z,101843.34
2017-09-23T04:56:57.683Z,101843.27
2017-09-23T04:59:32.677Z,101843.41
2017-09-23T05:02:07.382Z,101844.86
2017-09-23T05:04:42.104Z,101848.77
2017-09-23T05:07:16.827Z,101844.36
2017-09-23T05:09:51.458Z,101853.89
2017-09-23T05:12:26.283Z,101861.69
2017-09-23T05:15:00.860Z,101862.37
2017-09-23T05:17:35.577Z,101860.05
2017-09-23T05:20:10.401Z,101868.27
2017-09-23T05:22:45.254Z,101871.82
2017-09-23T05:25:19.925Z,101875.45
2017-09-23T05:27:54.464Z,101884.48
2017-09-23T05:30:29.163Z,101877.78
2017-09-23T05:33:03.836Z,101871.89
2017-09-23T05:35:38.033Z,101877.11
2017-09-23T05:38:12.951Z,101880.58
2017-09-23T05:40:47.851Z,101879.32
2017-09-23T05:43:22.563Z,101874.48
2017-09-23T05:45:57.384Z,101868.48
2017-09-23T05:48:33.012Z,101871.59
2017-09-23T05:51:07.659Z,101872.31
2017-09-23T05:53:42.496Z,101872.69
2017-09-23T05:56:17.274Z,101878.28
2017-09-23T05:58:52.172Z,101888.81
2017-09-23T06:01:27.002Z,101892.99
2017-09-23T06:04:01.926Z,101899.50
2017-09-23T06:06:37.036Z,101907.05
2017-09-23T06:09:11.648Z,101914.33
2017-09-23T06:11:46.391Z,101917.20
2017-09-23T06:14:21.163Z,101919.41
2017-09-23T06:16:56.814Z,101921.73
2017-09-23T06:19:31.559Z,101920.06
2017-09-23T06:22:06.088Z,101918.69
2017-09-23T06:24:41.703Z,101915.50
2017-09-23T06:27:16.571Z,101922.66
2017-09-23T06:29:51.070Z,101917.72
2017-09-23T06:32:25.876Z,101919.72
2017-09-23T06:35:00.699Z,101916.17
2017-09-23T06:37:35.502Z,101918.98
2017-09-23T06:40:10.442Z,101924.64
2017-09-23T06:42:45.235Z,101914.95
2017-09-23T06:45:20.227Z,101915.91
2017-09-23T06:47:55.298Z,101927.72
2017-09-23T06:50:30.298Z,101924.11
2017-09-23T06:53:04.910Z,101926.75
2017-09-23T06:55:39.472Z,101927.52
2017-09-23T06:58:14.152Z,101926.67
2017-09-23T07:00:49.093Z,101921.13
2017-09-23T07:03:23.574Z,101926.49
2017-09-23T07:05:58.415Z,101933.92
2017-09-23T07:08:33.044Z,101931.83
2017-09-23T07:11:07.555Z,101931.20
2017-09-23T07:13:42.403Z,101938.14
2017-09-23T07:16:17.113Z,101935.60
2017-09-23T07:18:52.706Z,101939.17
2017-09-23T07:21:27.056Z,101941.95
2017-09-23T07:24:02.179Z,101944.66
2017-09-23T07:26:37.407Z,101943.85
2017-09-23T07:29:11.975Z,101954.59
2017-09-23T07:31:47.285Z,101957.16
2017-09-23T07:34:22.299Z,101955.34
2017-09-23T07:36:57.090Z,101956.95
2017-09-23T07:39:31.710Z,101950.70
2017-09-23T07:42:06.143Z,101950.41
2017-09-23T07:44:40.742Z,101962.77
2017-09-23T07:47:16.270Z,101953.31
2017-09-23T07:49:51.199Z,101962.22
2017-09-23T07:52:26.090Z,101959.05
2017-09-23T07:55:01.177Z,101958.65
2017-09-23T07:57:35.811Z,101956.31
2017-09-23T08:00:10.267Z,101959.24
2017-09-23T08:02:45.231Z,101967.13
2017-09-23T08:05:19.992Z,101968.75
2017-09-23T08:07:54.815Z,101967.86
2017-09-23T08:10:29.551Z,101967.64
2017-09-23T08:13:03.862Z,101965.55
2017-09-23T08:15:39.111Z,101971.23
2017-09-23T08:18:13.930Z,101975.17
2017-09-23T08:20:48.440Z,101982.67
2017-09-23T08:23:23.516Z,101989.36
2017-09-23T08:25:58.215Z,102001.80
2017-09-23T08:28:32.999Z,102005.16
2017-09-23T08:31:07.606Z,102003.41
2017-09-23T08:33:42.314Z,102010.04
2017-09-23T08:36:18.163Z,102005.73
2017-09-23T08:38:52.907Z,102004.46
2017-09-23T08:41:27.489Z,102005.31
2017-09-23T08:44:02.718Z,102007.50
2017-09-23T08:46:37.424Z,102008.11
2017-09-23T08:49:12.173Z,101997.88
2017-09-23T08:51:46.883Z,101992.56
2017-09-23T08:54:21.795Z,101992.41
2017-09-23T08:56:56.911Z,101981.92
2017-09-23T08:59:31.564Z,101979.21
2017-09-23T09:02:06.330Z,101974.59
2017-09-23T09:04:41.019Z,101977.38
2017-09-23T09:07:15.807Z,101983.31
2017-09-23T09:09:50.521Z,101987.05
2017-09-23T09:12:26.263Z,101982.53
2017-09-23T09:15:01.250Z,101975.66
2017-09-23T09:17:36.071Z,101980.33
2017-09-23T09:20:11.295Z,101980.12
2017-09-23T09:22:45.930Z,101981.92
2017-09-23T09:25:20.900Z,101981.62
2017-09-23T09:27:55.990Z,101980.80
2017-09-23T09:30:30.745Z,101977.91
2017-09-23T09:33:05.138Z,101976.13
2017-09-23T09:35:40.377Z,101972.80
2017-09-23T09:38:15.026Z,101972.41
2017-09-23T09:40:50.067Z,101970.00
2017-09-23T09:43:24.789Z,101974.16
2017-09-23T09:45:59.623Z,101976.88
2017-09-23T09:48:34.316Z,101982.40
2017-09-23T09:51:09.030Z,101980.98
2017-09-23T09:53:43.725Z,101983.88
2017-09-23T09:56:18.562Z,101983.39
2017-09-23T09:58:53.552Z,101984.85
2017-09-23T10:01:28.661Z,101973.95
2017-09-23T10:04:03.519Z,101970.23
2017-09-23T10:06:38.337Z,101968.55
2017-09-23T10:09:12.997Z,101971.39
2017-09-23T10:11:47.769Z,101978.72
2017-09-23T10:14:22.823Z,101971.28
2017-09-23T10:16:57.639Z,101974.55
2017-09-23T10:19:32.147Z,101966.99
2017-09-23T10:22:07.115Z,101972.59
2017-09-23T10:24:41.839Z,101979.80
2017-09-23T10:27:16.346Z,101977.55
2017-09-23T10:29:51.638Z,101976.72
2017-09-23T10:32:26.355Z,101970.67
2017-09-23T10:35:01.057Z,101972.44
2017-09-23T10:37:35.928Z,101966.53
2017-09-23T10:40:10.673Z,101965.13
2017-09-23T10:42:45.309Z,101964.11
2017-09-23T10:45:19.774Z,101961.30
2017-09-23T10:47:54.547Z,101952.94
2017-09-23T10:50:29.156Z,101954.84
2017-09-23T10:53:03.591Z,101951.09
2017-09-23T10:55:38.527Z,101961.67
2017-09-23T10:58:13.471Z,101952.17
2017-09-23T11:00:48.485Z,101955.55
2017-09-23T11:03:23.424Z,101948.65
2017-09-23T11:05:58.222Z,101947.70
2017-09-23T11:08:32.855Z,101954.16
2017-09-23T11:11:07.575Z,101952.70
2017-09-23T11:13:42.295Z,101949.02
2017-09-23T11:16:16.802Z,101944.15
2017-09-23T11:18:52.595Z,101936.52
2017-09-23T11:21:27.097Z,101934.66
2017-09-23T11:24:01.903Z,101943.25
2017-09-23T11:26:36.550Z,101936.56
2017-09-23T11:29:11.160Z,101940.84
2017-09-23T11:31:45.911Z,101935.91
2017-09-23T11:34:20.824Z,101939.45
2017-09-23T11:36:56.526Z,101932.63
2017-09-23T11:39:30.999Z,101934.52
2017-09-23T11:42:05.554Z,101935.37
2017-09-23T11:44:40.079Z,101926.88
2017-09-23T11:47:14.903Z,101921.86
2017-09-23T11:49:49.632Z,101925.27
2017-09-23T11:52:25.367Z,101922.89
2017-09-23T11:55:00.047Z,101925.47
2017-09-23T11:57:34.671Z,101919.48
2017-09-23T12:00:09.403Z,101916.53
2017-09-23T12:02:44.190Z,101909.63
2017-09-23T12:05:18.801Z,101912.12
2017-09-23T12:07:53.499Z,101916.75
2017-09-23T12:10:28.194Z,101912.30
2017-09-23T12:13:02.592Z,101913.12
2017-09-23T12:15:37.495Z,101908.09
2017-09-23T12:18:12.118Z,101908.98
2017-09-23T12:20:46.719Z,101901.88
2017-09-23T12:23:22.342Z,101894.03
2017-09-23T12:25:56.989Z,101897.62
2017-09-23T12:28:31.612Z,101899.97
2017-09-23T12:31:06.376Z,101892.57
2017-09-23T12:33:41.030Z,101894.30
2017-09-23T12:36:16.607Z,101900.10
2017-09-23T12:38:51.326Z,101904.42
2017-09-23T12:41:26.082Z,101911.61
2017-09-23T12:44:00.735Z,101913.92
2017-09-23T12:46:35.549Z,101911.19
2017-09-23T12:49:11.293Z,101912.81
2017-09-23T12:51:46.751Z,101908.91
2017-09-23T12:54:21.561Z,101910.38
2017-09-23T12:56:56.182Z,101909.56
2017-09-23T12:59:30.726Z,101906.08
2017-09-23T13:02:05.606Z,101914.54
2017-09-23T13:04:40.551Z,101913.31
2017-09-23T13:07:15.418Z,101908.61
2017-09-23T13:09:50.229Z,101905.16
2017-09-23T13:12:24.855Z,101905.41
2017-09-23T13:14:59.531Z,101901.05
2017-09-23T13:17:34.225Z,101903.90
2017-09-23T13:20:09.057Z,101902.86
2017-09-23T13:22:43.899Z,101895.58
2017-09-23T13:25:18.720Z,101902.15
2017-09-23T13:27:53.475Z,101893.44
2017-09-23T13:30:27.998Z,101890.88
2017-09-23T13:33:03.613Z,101889.84
2017-09-23T13:35:38.149Z,101886.27
2017-09-23T13:38:12.892Z,101886.14
2017-09-23T13:40:49.146Z,101879.55
2017-09-23T13:43:24.440Z,101876.47
2017-09-23T13:45:59.497Z,101873.95
2017-09-23T13:48:34.279Z,101883.11
2017-09-23T13:51:09.017Z,101878.33
2017-09-23T13:53:43.615Z,101870.50
2017-09-23T13:56:18.354Z,101875.38
2017-09-23T13:58:52.884Z,101868.28
2017-09-23T14:01:27.716Z,101865.95
2017-09-23T14:04:03.404Z,101864.11
2017-09-23T14:06:38.683Z,101860.72
2017-09-23T14:09:13.709Z,101868.92
2017-09-23T14:11:48.634Z,101861.94
2017-09-23T14:14:22.952Z,101862.14
2017-09-23T14:16:58.267Z,101863.66
2017-09-23T14:19:33.075Z,101869.47
2017-09-23T14:22:07.879Z,101860.06
2017-09-23T14:24:42.797Z,101855.20
2017-09-23T14:27:17.584Z,101854.59
2017-09-23T14:29:52.314Z,101851.14
2017-09-23T14:32:27.321Z,101850.63
2017-09-23T14:35:01.920Z,101849.05
2017-09-23T14:37:36.414Z,101852.36
2017-09-23T14:40:11.082Z,101851.39
2017-09-23T14:42:45.827Z,101848.59
2017-09-23T14:45:20.635Z,101844.77
2017-09-23T14:47:55.416Z,101842.95
2017-09-23T14:50:30.167Z,101849.03
2017-09-23T14:53:04.897Z,101842.46
2017-09-23T14:55:39.500Z,101844.17
2017-09-23T14:58:14.305Z,101844.86
2017-09-23T15:00:49.930Z,101843.66
2017-09-23T15:03:25.576Z,101839.22
2017-09-23T15:06:00.440Z,101846.67
2017-09-23T15:08:35.055Z,101844.69
2017-09-23T15:11:09.747Z,101844.72
2017-09-23T15:13:44.336Z,101843.34
2017-09-23T15:16:18.926Z,101842.72
2017-09-23T15:18:53.731Z,101847.20
2017-09-23T15:21:28.473Z,101840.44
2017-09-23T15:24:03.781Z,101843.64
2017-09-23T15:26:38.295Z,101846.95
2017-09-23T15:29:13.020Z,101843.84
2017-09-23T15:31:47.718Z,101847.59
2017-09-23T15:34:22.328Z,101841.90
2017-09-23T15:36:57.167Z,101846.20
2017-09-23T15:39:31.908Z,101840.48
2017-09-23T15:42:06.812Z,101846.67
2017-09-23T15:44:41.841Z,101847.23
2017-09-23T15:47:16.274Z,101845.75
2017-09-23T15:49:51.124Z,101848.05
2017-09-23T15:52:25.959Z,101847.14
2017-09-23T15:55:00.660Z,101842.97
2017-09-23T15:57:35.233Z,101844.48
2017-09-23T16:00:09.868Z,101844.92
2017-09-23T16:02:44.489Z,101843.04
2017-09-23T16:05:19.274Z,101847.89
2017-09-23T16:07:54.104Z,101849.38
2017-09-23T16:10:28.706Z,101849.25
2017-09-23T16:13:03.810Z,101849.97
2017-09-23T16:15:38.631Z,101855.48
2017-09-23T16:18:13.287Z,101853.53
2017-09-23T16:20:48.305Z,101855.12
2017-09-23T16:23:23.018Z,101860.36
2017-09-23T16:25:57.754Z,101864.13
2017-09-23T16:28:32.455Z,101861.47
2017-09-23T16:31:07.281Z,101868.42
2017-09-23T16:33:41.945Z,101867.58
2017-09-23T16:36:16.929Z,101866.20
2017-09-23T16:38:51.755Z,101864.05
2017-09-23T16:41:26.505Z,101861.98
2017-09-23T16:44:01.217Z,101863.48
2017-09-23T16:46:36.055Z,101862.75
2017-09-23T16:49:10.611Z,101857.95
2017-09-23T16:51:45.327Z,101856.79
2017-09-23T16:54:20.009Z,101851.92
2017-09-23T16:56:54.848Z,101857.94
2017-09-23T16:59:29.695Z,101858.38
2017-09-23T17:02:04.486Z,101851.97
2017-09-23T17:04:40.294Z,101848.31
2017-09-23T17:07:15.142Z,101855.00
2017-09-23T17:09:50.744Z,101849.96
2017-09-23T17:12:25.459Z,101850.53
2017-09-23T17:15:00.639Z,101845.91
2017-09-23T17:17:35.667Z,101850.17
2017-09-23T17:20:10.276Z,101855.38
2017-09-23T17:22:44.842Z,101851.56
2017-09-23T17:25:19.398Z,101848.69
2017-09-23T17:27:54.108Z,101849.20
2017-09-23T17:30:28.915Z,101850.85
2017-09-23T17:33:03.757Z,101859.98
2017-09-23T17:35:38.352Z,101854.17
2017-09-23T17:38:13.299Z,101854.58
2017-09-23T17:40:48.123Z,101855.77
2017-09-23T17:43:22.758Z,101849.25
2017-09-23T17:45:57.588Z,101851.31
2017-09-23T17:48:32.612Z,101858.94
2017-09-23T17:51:07.571Z,101856.81
2017-09-23T17:53:42.451Z,101855.78
2017-09-23T17:56:18.037Z,101852.88
2017-09-23T17:58:52.755Z,101855.27
2017-09-23T18:01:27.475Z,101854.75
2017-09-23T18:04:02.269Z,101849.26
2017-09-23T18:06:36.892Z,101851.91
2017-09-23T18:09:11.745Z,101845.42
2017-09-23T18:11:46.397Z,101842.11
2017-09-23T18:14:21.224Z,101839.39
2017-09-23T18:16:56.164Z,101844.42
2017-09-23T18:19:30.878Z,101840.66
2017-09-23T18:22:05.655Z,101843.16
2017-09-23T18:24:40.153Z,101847.75
2017-09-23T18:27:14.751Z,101832.38
2017-09-23T18:29:49.462Z,101837.66
2017-09-23T18:32:24.232Z,101832.77
2017-09-23T18:34:59.051Z,101841.92
2017-09-23T18:37:33.903Z,101841.70
2017-09-23T18:40:08.711Z,101842.21
2017-09-23T18:42:43.543Z,101836.77
2017-09-23T18:45:19.050Z,101842.28
2017-09-23T18:47:54.092Z,101845.19
2017-09-23T18:50:28.901Z,101832.85
2017-09-23T18:53:03.795Z,101834.48
2017-09-23T18:55:38.558Z,101833.96
2017-09-23T18:58:13.372Z,101834.35
2017-09-23T19:00:48.028Z,101835.15
2017-09-23T19:03:22.712Z,101838.12
2017-09-23T19:05:57.439Z,101839.50
2017-09-23T19:08:32.086Z,101832.48
2017-09-23T19:11:06.699Z,101834.31
2017-09-23T19:13:41.334Z,101833.91
2017-09-23T19:16:16.933Z,101832.81
2017-09-23T19:18:51.666Z,101834.69
2017-09-23T19:21:26.753Z,101841.25
2017-09-23T19:24:02.487Z,101836.02
2017-09-23T19:26:37.116Z,101838.52
2017-09-23T19:29:11.820Z,101843.58
2017-09-23T19:31:46.206Z,101842.08
2017-09-23T19:34:20.975Z,101847.97
2017-09-23T19:36:55.674Z,101850.58
2017-09-23T19:39:30.607Z,101853.03
2017-09-23T19:42:05.356Z,101848.55
2017-09-23T19:44:39.908Z,101857.06
2017-09-23T19:47:14.516Z,101845.62
2017-09-23T19:49:58.381Z,101849.39
2017-09-23T19:52:33.220Z,101851.70
2017-09-23T19:55:08.352Z,101859.34
2017-09-23T19:57:43.203Z,101856.92
2017-09-23T20:00:19.665Z,101855.36
2017-09-23T20:02:54.268Z,101856.92
2017-09-23T20:05:28.987Z,101855.05
2017-09-23T20:08:03.771Z,101862.59
2017-09-23T20:10:38.710Z,101851.55
2017-09-23T20:13:13.399Z,101857.82
2017-09-23T20:15:48.141Z,101854.93
2017-09-23T20:18:22.786Z,101854.45
2017-09-23T20:20:57.228Z,101858.44
2017-09-23T20:23:32.111Z,101856.27
2017-09-23T20:26:06.839Z,101856.47
2017-09-23T20:28:41.550Z,101857.00
2017-09-23T20:31:17.214Z,101851.27
2017-09-23T20:33:51.855Z,101852.00
2017-09-23T20:36:26.491Z,101848.69
2017-09-23T20:39:01.187Z,101853.81
2017-09-23T20:41:35.814Z,101859.44
2017-09-23T20:44:10.561Z,101856.77
2017-09-23T20:46:45.514Z,101854.03
2017-09-23T20:49:20.241Z,101851.83
2017-09-23T20:51:55.041Z,101855.77
2017-09-23T20:54:29.955Z,101853.03
2017-09-23T20:57:04.886Z,101855.25
2017-09-23T20:59:39.595Z,101854.11
2017-09-23T21:02:14.515Z,101852.00
2017-09-23T21:04:49.247Z,101855.58
2017-09-23T21:07:24.123Z,101852.36
2017-09-23T21:09:58.927Z,101849.64
2017-09-23T21:12:33.430Z,101848.29
2017-09-23T21:15:08.139Z,101843.30
2017-09-23T21:17:42.862Z,101842.92
2017-09-23T21:20:17.752Z,101852.23
2017-09-23T21:22:52.478Z,101848.83
2017-09-23T21:25:27.514Z,101855.02
2017-09-23T21:28:03.086Z,101856.81
2017-09-23T21:30:38.146Z,101856.81
2017-09-23T21:33:12.975Z,101853.91
2017-09-23T21:35:48.119Z,101859.87
2017-09-23T21:38:23.543Z,101862.27
2017-09-23T21:40:58.143Z,101863.38
2017-09-23T21:43:32.933Z,101861.23
2017-09-23T21:46:07.747Z,101859.37
2017-09-23T21:48:43.370Z,101865.86
2017-09-23T21:51:18.131Z,101859.55
2017-09-23T21:53:52.955Z,101859.52
2017-09-23T21:56:27.811Z,101860.13
2017-09-23T21:59:02.633Z,101855.98
2017-09-23T22:01:37.243Z,101853.15
2017-09-23T22:04:11.976Z,101854.13
2017-09-23T22:06:46.656Z,101851.86
2017-09-23T22:09:21.476Z,101859.68
2017-09-23T22:11:56.212Z,101854.79
2017-09-23T22:14:30.716Z,101853.53
2017-09-23T22:17:05.339Z,101854.03
2017-09-23T22:19:40.059Z,101852.37
2017-09-23T22:22:14.852Z,101858.20
2017-09-23T22:24:49.876Z,101855.59
2017-09-23T22:27:24.673Z,101860.50
2017-09-23T22:29:59.503Z,101856.59
2017-09-23T22:32:34.120Z,101853.28
2017-09-23T22:35:09.012Z,101859.16
2017-09-23T22:37:43.623Z,101855.38
2017-09-23T22:40:19.244Z,101850.95
2017-09-23T22:42:54.179Z,101849.73
2017-09-23T22:45:28.919Z,101859.33
2017-09-23T22:48:03.780Z,101858.25
2017-09-23T22:50:38.403Z,101855.06
2017-09-23T22:53:13.191Z,101857.39
2017-09-23T22:55:47.853Z,101859.25
2017-09-23T22:58:22.600Z,101857.73
2017-09-23T23:00:57.170Z,101855.61
2017-09-23T23:03:32.175Z,101857.41
2017-09-23T23:06:06.830Z,101858.17
2017-09-23T23:08:42.309Z,101857.45
2017-09-23T23:11:17.911Z,101855.53
2017-09-23T23:13:52.577Z,101855.52
2017-09-23T23:16:27.196Z,101852.91
2017-09-23T23:19:01.904Z,101855.95
2017-09-23T23:21:36.346Z,101855.37
2017-09-23T23:24:11.452Z,101850.84
2017-09-23T23:26:46.381Z,101851.20
2017-09-23T23:29:21.057Z,101852.99
2017-09-23T23:31:55.836Z,101848.72
2017-09-23T23:34:30.538Z,101853.16
2017-09-23T23:37:05.626Z,101854.34
2017-09-23T23:39:40.500Z,101850.27
2017-09-23T23:42:15.216Z,101847.61
2017-09-23T23:44:50.027Z,101843.93
2017-09-23T23:47:24.880Z,101845.10
2017-09-23T23:49:59.635Z,101845.09
2017-09-23T23:52:34.143Z,101847.96
2017-09-23T23:55:08.779Z,101852.23
2017-09-23T23:57:43.451Z,101853.50
